Time;durP1;ratioP1;P1;durP2;ratioP2;P2;SDS_P1;SDS_P2;PMS_P1;PMS_P2;Temp;Humidity;BMP_temperature;BMP_pressure;BME280_temperature;BME280_humidity;BME280_pressure;Samples;Min_cycle;Max_cycle;Signal;HPM_P1;HPM_P2
2023/08/31 00:01:22;;;;;;;7.10;3.88;;;19.40;81.50;;;;;;7388059;19;20027;-78
2023/08/31 00:03:54;;;;;;;11.38;3.97;;;19.40;81.50;;;;;;7388275;19;20062;-78
2023/08/31 00:06:23;;;;;;;10.15;3.80;;;19.40;81.50;;;;;;7389601;19;20011;-78
2023/08/31 00:08:52;;;;;;;8.20;3.90;;;19.40;81.60;;;;;;7390651;19;20011;-78
2023/08/31 00:11:21;;;;;;;11.32;3.90;;;19.40;81.50;;;;;;7388277;19;20407;-78
2023/08/31 00:13:49;;;;;;;10.75;4.00;;;19.40;81.50;;;;;;7410499;19;20003;-78
2023/08/31 00:16:18;;;;;;;7.43;3.55;;;19.40;81.60;;;;;;7389394;19;20007;-79
2023/08/31 00:18:47;;;;;;;9.45;3.67;;;19.40;81.80;;;;;;7388662;19;20011;-78
2023/08/31 00:21:18;;;;;;;10.10;4.13;;;19.40;81.90;;;;;;7389620;19;20096;-79
2023/08/31 00:23:48;;;;;;;8.75;3.55;;;19.30;82.20;;;;;;7388677;19;20010;-78
2023/08/31 00:26:17;;;;;;;13.52;3.70;;;19.40;82.40;;;;;;7390209;19;20027;-78
2023/08/31 00:28:46;;;;;;;10.85;3.78;;;19.40;83.10;;;;;;7410112;19;20365;-80
2023/08/31 00:31:14;;;;;;;7.90;3.67;;;19.40;82.40;;;;;;7390315;19;20030;-79
2023/08/31 00:33:43;;;;;;;10.18;3.72;;;19.40;82.30;;;;;;7392925;19;20015;-79
2023/08/31 00:36:12;;;;;;;10.90;3.75;;;19.40;82.30;;;;;;7397380;19;20021;-78
2023/08/31 00:38:44;;;;;;;7.40;3.38;;;19.40;82.20;;;;;;7392515;19;20007;-78
2023/08/31 00:41:15;;;;;;;10.55;3.65;;;19.40;82.20;;;;;;7394981;19;20010;-78
2023/08/31 00:43:43;;;;;;;7.10;3.50;;;19.40;82.20;;;;;;7412861;19;20017;-78
2023/08/31 00:46:12;;;;;;;9.30;3.60;;;19.30;82.40;;;;;;7390069;19;20358;-78
2023/08/31 00:48:41;;;;;;;12.57;3.75;;;19.30;82.60;;;;;;7390190;19;20006;-78
2023/08/31 00:51:10;;;;;;;7.13;3.30;;;19.30;82.80;;;;;;7388237;19;20014;-79
2023/08/31 00:53:39;;;;;;;17.60;3.95;;;19.30;82.90;;;;;;7390073;19;20003;-78
2023/08/31 00:56:13;;;;;;;6.93;3.50;;;19.30;82.80;;;;;;7411119;19;20007;-79
2023/08/31 00:58:42;;;;;;;13.13;3.22;;;19.20;82.90;;;;;;7388123;19;20011;-78
2023/08/31 01:01:21;;;;;;;10.32;3.25;;;19.20;83.20;;;;;;7383402;19;20010;-77
2023/08/31 01:04:02;;;;;;;14.13;3.53;;;19.20;83.30;;;;;;7388741;19;20023;-78
2023/08/31 01:06:43;;;;;;;10.00;3.40;;;19.20;83.40;;;;;;7388538;19;20269;-78
2023/08/31 01:09:19;;;;;;;10.50;3.95;;;19.20;83.30;;;;;;7387756;19;20010;-78
2023/08/31 01:11:58;;;;;;;9.57;3.45;;;19.20;83.30;;;;;;7387467;19;20010;-79
2023/08/31 01:14:40;;;;;;;10.63;3.75;;;19.20;83.40;;;;;;7388729;19;20006;-78
2023/08/31 01:17:11;;;;;;;6.25;3.15;;;19.20;83.40;;;;;;7410540;19;20010;-79
2023/08/31 01:19:49;;;;;;;9.95;3.55;;;19.20;83.40;;;;;;7388311;19;20014;-79
2023/08/31 01:22:27;;;;;;;10.40;3.45;;;19.20;83.60;;;;;;7387857;19;20069;-79
2023/08/31 01:25:01;;;;;;;13.02;3.70;;;19.20;83.70;;;;;;7388151;19;20014;-79
2023/08/31 01:27:30;;;;;;;7.93;3.10;;;19.10;83.60;;;;;;7387279;19;20031;-79
2023/08/31 01:29:59;;;;;;;12.40;5.50;;;19.20;83.80;;;;;;7387445;19;20010;-78
2023/08/31 01:32:28;;;;;;;15.98;5.72;;;19.20;84.00;;;;;;7386732;19;20011;-79
2023/08/31 01:34:58;;;;;;;9.15;3.60;;;19.20;84.10;;;;;;7408757;19;20011;-79
2023/08/31 01:37:33;;;;;;;8.98;3.80;;;19.20;84.20;;;;;;7388538;19;20106;-79
2023/08/31 01:40:11;;;;;;;12.77;3.45;;;19.20;84.10;;;;;;7389483;19;20108;-79
2023/08/31 01:42:41;;;;;;;10.23;3.33;;;19.20;84.10;;;;;;7388408;19;20035;-79
2023/08/31 01:45:13;;;;;;;8.40;3.08;;;19.20;84.10;;;;;;7389134;19;20003;-79
2023/08/31 01:47:41;;;;;;;7.25;3.42;;;19.20;84.10;;;;;;7390876;19;20007;-78
2023/08/31 01:50:11;;;;;;;9.27;4.07;;;19.20;84.10;;;;;;7408938;19;20007;-78
2023/08/31 01:52:40;;;;;;;10.50;3.95;;;19.20;84.20;;;;;;7387036;19;20003;-78
2023/08/31 01:55:13;;;;;;;7.90;3.42;;;19.20;84.20;;;;;;7387841;19;20002;-79
2023/08/31 01:57:42;;;;;;;6.60;3.13;;;19.20;84.30;;;;;;7388723;19;20025;-78
2023/08/31 02:00:12;;;;;;;8.35;3.10;;;19.20;84.20;;;;;;7387490;19;20010;-78
2023/08/31 02:02:41;;;;;;;7.15;3.58;;;19.20;84.20;;;;;;7387457;19;20023;-77
2023/08/31 02:05:11;;;;;;;12.40;3.05;;;19.20;84.10;;;;;;7410142;19;20018;-77
2023/08/31 02:07:40;;;;;;;8.85;3.50;;;19.10;84.00;;;;;;7388211;19;20003;-78
2023/08/31 02:10:12;;;;;;;10.23;3.40;;;19.10;84.10;;;;;;7386700;19;20002;-78
2023/08/31 02:12:40;;;;;;;10.07;3.78;;;19.10;84.30;;;;;;7392161;19;20010;-78
2023/08/31 02:15:10;;;;;;;11.80;3.17;;;19.10;84.30;;;;;;7396798;19;20014;-79
2023/08/31 02:17:39;;;;;;;9.98;3.30;;;19.10;84.20;;;;;;7396125;19;20007;-79
2023/08/31 02:20:09;;;;;;;15.50;3.38;;;19.10;84.20;;;;;;7414630;19;20009;-78
2023/08/31 02:22:38;;;;;;;15.43;3.67;;;19.10;84.30;;;;;;7392844;19;20043;-79
2023/08/31 02:25:08;;;;;;;4.80;3.05;;;19.10;84.50;;;;;;7395392;19;20010;-79
2023/08/31 02:27:39;;;;;;;9.98;3.40;;;19.10;84.60;;;;;;7394983;19;20070;-79
2023/08/31 02:30:08;;;;;;;;;;;19.10;84.70;;;;;;7397849;19;20017;-79
2023/08/31 02:32:37;;;;;;;11.05;3.10;;;19.20;84.70;;;;;;7397273;19;19954;-79
2023/08/31 02:35:07;;;;;;;7.40;3.28;;;19.10;84.40;;;;;;7420788;19;20002;-79
2023/08/31 02:37:35;;;;;;;10.95;3.10;;;19.10;84.60;;;;;;7400437;19;19999;-79
2023/08/31 02:40:05;;;;;;;13.80;2.95;;;19.10;84.80;;;;;;7403057;19;20011;-78
2023/08/31 02:42:33;;;;;;;10.93;3.42;;;19.00;84.70;;;;;;7401286;19;20070;-78
2023/08/31 02:45:05;;;;;;;11.13;3.47;;;19.00;84.80;;;;;;7395043;19;20066;-79
2023/08/31 02:47:34;;;;;;;8.60;3.22;;;19.00;85.00;;;;;;7394032;19;20027;-78
2023/08/31 02:50:02;;;;;;;11.85;3.15;;;19.00;85.20;;;;;;7411629;19;20350;-78
2023/08/31 02:52:31;;;;;;;8.82;3.47;;;19.00;85.00;;;;;;7391178;19;20220;-78
2023/08/31 02:55:00;;;;;;;7.25;2.80;;;19.00;85.00;;;;;;7392406;19;20047;-79
2023/08/31 02:57:28;;;;;;;5.95;2.95;;;19.00;85.10;;;;;;7394050;19;20377;-78
2023/08/31 02:59:57;;;;;;;7.85;3.70;;;19.00;85.10;;;;;;7393009;19;20011;-79
2023/08/31 03:02:28;;;;;;;7.82;3.28;;;19.00;85.30;;;;;;7390820;19;20014;-79
2023/08/31 03:04:58;;;;;;;;;;;19.00;85.30;;;;;;7413958;19;20052;-79
2023/08/31 03:07:26;;;;;;;9.00;3.17;;;19.10;85.40;;;;;;7391542;19;19916;-78
2023/08/31 03:09:55;;;;;;;8.70;3.30;;;19.00;85.20;;;;;;7395337;19;20010;-78
2023/08/31 03:12:24;;;;;;;10.60;3.25;;;19.00;85.30;;;;;;7391500;19;20007;-78
2023/08/31 03:14:52;;;;;;;10.02;3.20;;;19.00;85.30;;;;;;7389132;19;20429;-78
2023/08/31 03:17:21;;;;;;;9.43;3.08;;;19.00;85.30;;;;;;7391727;19;20361;-78
2023/08/31 03:19:52;;;;;;;14.85;3.03;;;19.00;85.30;;;;;;7409536;19;20233;-78
2023/08/31 03:22:21;;;;;;;;;;;19.00;85.20;;;;;;7385711;19;20007;-78
2023/08/31 03:24:50;;;;;;;9.02;3.30;;;19.00;85.20;;;;;;7390353;19;19911;-78
2023/08/31 03:27:19;;;;;;;12.32;3.35;;;18.90;85.00;;;;;;7390560;19;20007;-78
2023/08/31 03:29:47;;;;;;;10.70;2.65;;;18.90;85.30;;;;;;7390735;19;20038;-79
2023/08/31 03:32:16;;;;;;;11.43;3.40;;;18.90;85.60;;;;;;7389515;19;20014;-79
2023/08/31 03:34:45;;;;;;;9.45;3.03;;;18.90;85.80;;;;;;7410500;19;20038;-79
2023/08/31 03:37:16;;;;;;;6.13;2.90;;;18.90;85.90;;;;;;7391354;19;20038;-79
2023/08/31 03:39:45;;;;;;;7.97;3.10;;;18.90;86.00;;;;;;7393294;19;20273;-79
2023/08/31 03:42:14;;;;;;;8.68;3.10;;;18.90;86.00;;;;;;7392752;19;20250;-79
2023/08/31 03:44:42;;;;;;;7.78;3.15;;;18.90;86.10;;;;;;7390527;19;20007;-78
2023/08/31 03:47:11;;;;;;;12.30;4.00;;;18.90;86.20;;;;;;7414206;19;20038;-79
2023/08/31 03:49:40;;;;;;;7.60;3.25;;;18.90;86.30;;;;;;7391212;19;20010;-78
2023/08/31 03:52:09;;;;;;;14.40;3.97;;;18.90;86.30;;;;;;7389950;19;20002;-78
2023/08/31 03:54:40;;;;;;;7.57;3.03;;;18.90;86.30;;;;;;7389314;19;20015;-78
2023/08/31 03:57:08;;;;;;;;;;;18.90;86.30;;;;;;7391799;19;20010;-78
2023/08/31 03:59:34;;;;;;;8.60;3.13;;;18.90;86.20;;;;;;7388381;19;19910;-78
2023/08/31 04:02:03;;;;;;;8.00;3.65;;;18.90;85.90;;;;;;7412315;19;20350;-79
2023/08/31 04:04:33;;;;;;;7.85;3.42;;;18.90;85.90;;;;;;7390269;19;19999;-78
2023/08/31 04:07:02;;;;;;;10.30;3.22;;;18.80;86.10;;;;;;7391141;19;20030;-79
2023/08/31 04:09:32;;;;;;;8.93;3.22;;;18.90;86.10;;;;;;7389544;19;20007;-79
2023/08/31 04:12:03;;;;;;;8.25;3.13;;;18.90;86.10;;;;;;7390242;19;20090;-79
2023/08/31 04:14:32;;;;;;;;;;;18.90;86.20;;;;;;7389302;19;20032;-79
2023/08/31 04:17:00;;;;;;;10.13;3.30;;;18.90;86.40;;;;;;7409913;19;19995;-79
2023/08/31 04:19:29;;;;;;;9.57;3.40;;;18.90;86.50;;;;;;7386627;19;20011;-79
2023/08/31 04:21:58;;;;;;;9.48;3.15;;;18.80;86.60;;;;;;7387817;19;20003;-79
2023/08/31 04:24:27;;;;;;;12.65;3.38;;;18.80;86.70;;;;;;7388655;19;20031;-79
2023/08/31 04:26:56;;;;;;;8.32;3.50;;;18.80;87.00;;;;;;7387454;19;20019;-79
2023/08/31 04:29:27;;;;;;;10.82;3.88;;;18.80;87.20;;;;;;7388826;19;20011;-80
2023/08/31 04:31:56;;;;;;;10.10;3.58;;;18.80;86.70;;;;;;7408235;19;20346;-79
2023/08/31 04:34:24;;;;;;;10.45;3.63;;;18.80;86.70;;;;;;7398204;19;20014;-78
2023/08/31 04:36:53;;;;;;;9.05;3.33;;;18.80;87.00;;;;;;7403297;19;20003;-79
2023/08/31 04:39:22;;;;;;;14.73;3.30;;;18.80;86.90;;;;;;7405072;19;20010;-78
2023/08/31 04:41:50;;;;;;;9.82;3.40;;;18.80;87.00;;;;;;7406081;19;20017;-80
2023/08/31 04:44:19;;;;;;;12.90;3.20;;;18.80;87.00;;;;;;7394916;19;20038;-78
2023/08/31 04:46:50;;;;;;;12.18;3.45;;;18.80;87.00;;;;;;7408723;19;20067;-78
2023/08/31 04:49:19;;;;;;;14.13;3.88;;;18.80;87.00;;;;;;7387467;19;20071;-79
2023/08/31 04:51:48;;;;;;;10.07;3.55;;;18.80;87.00;;;;;;7386867;19;20007;-78
2023/08/31 04:54:17;;;;;;;14.73;3.78;;;18.90;87.20;;;;;;7387141;19;20002;-79
2023/08/31 04:56:46;;;;;;;20.27;4.32;;;18.90;87.20;;;;;;7387816;19;20016;-78
2023/08/31 04:59:14;;;;;;;12.27;3.35;;;18.90;87.20;;;;;;7385568;19;20044;-80
2023/08/31 05:01:43;;;;;;;8.63;3.17;;;18.80;87.30;;;;;;7408289;19;20002;-78
2023/08/31 05:04:14;;;;;;;8.60;3.45;;;18.90;87.50;;;;;;7385481;19;20011;-79
2023/08/31 05:06:43;;;;;;;14.80;3.72;;;18.90;87.50;;;;;;7385604;19;20014;-79
2023/08/31 05:09:12;;;;;;;13.90;3.63;;;18.90;87.40;;;;;;7387115;19;20026;-78
2023/08/31 05:11:40;;;;;;;12.60;3.80;;;18.90;87.40;;;;;;7386216;19;20035;-78
2023/08/31 05:14:09;;;;;;;6.80;3.65;;;18.90;87.40;;;;;;7405002;19;20010;-78
2023/08/31 05:16:38;;;;;;;8.50;3.63;;;18.90;87.50;;;;;;7386375;19;20007;-79
2023/08/31 05:19:07;;;;;;;15.73;3.85;;;18.90;87.70;;;;;;7386942;19;20011;-80
2023/08/31 05:21:38;;;;;;;9.38;3.72;;;18.90;87.80;;;;;;7388193;19;20054;-79
2023/08/31 05:24:08;;;;;;;12.88;3.80;;;18.90;87.80;;;;;;7387273;19;20051;-78
2023/08/31 05:26:36;;;;;;;10.20;3.92;;;18.90;87.70;;;;;;7387075;19;20017;-79
2023/08/31 05:29:06;;;;;;;16.05;5.38;;;18.90;87.80;;;;;;7408694;19;20007;-78
2023/08/31 05:31:34;;;;;;;15.50;4.70;;;18.90;87.60;;;;;;7386550;19;20013;-79
2023/08/31 05:34:03;;;;;;;13.95;4.45;;;18.90;87.60;;;;;;7387563;19;20006;-79
2023/08/31 05:36:32;;;;;;;10.43;3.85;;;18.90;87.70;;;;;;7388951;19;20007;-78
2023/08/31 05:39:04;;;;;;;9.95;3.35;;;18.90;87.80;;;;;;7388436;19;20041;-79
2023/08/31 05:41:32;;;;;;;17.45;4.20;;;18.90;87.90;;;;;;7390236;19;20024;-79
2023/08/31 05:44:01;;;;;;;11.27;3.70;;;18.90;88.00;;;;;;7410004;19;20011;-79
2023/08/31 05:46:30;;;;;;;11.88;3.90;;;18.90;88.10;;;;;;7388269;19;20674;-79
2023/08/31 05:48:58;;;;;;;11.57;3.60;;;18.90;88.20;;;;;;7389700;19;20019;-77
2023/08/31 05:51:27;;;;;;;18.08;4.70;;;19.00;88.30;;;;;;7391356;19;20372;-79
2023/08/31 05:53:56;;;;;;;13.10;3.88;;;19.00;88.20;;;;;;7387691;19;20011;-79
2023/08/31 05:56:27;;;;;;;15.20;3.95;;;19.00;88.10;;;;;;7387563;19;20027;-79
2023/08/31 05:58:56;;;;;;;;;;;19.00;88.00;;;;;;7412623;19;20023;-78
2023/08/31 06:01:25;;;;;;;22.58;3.50;;;19.10;88.00;;;;;;7386986;19;19911;-79
2023/08/31 06:03:53;;;;;;;11.73;3.97;;;19.00;87.80;;;;;;7385906;19;20007;-79
2023/08/31 06:06:22;;;;;;;10.07;3.70;;;19.00;88.00;;;;;;7385844;19;20007;-79
2023/08/31 06:08:51;;;;;;;11.05;3.53;;;19.10;88.30;;;;;;7386045;19;20007;-78
2023/08/31 06:11:19;;;;;;;11.32;3.55;;;19.10;88.30;;;;;;7385935;19;20010;-78
2023/08/31 06:13:51;;;;;;;17.38;3.78;;;19.10;88.30;;;;;;7403309;19;20015;-79
2023/08/31 06:16:19;;;;;;;15.30;3.47;;;19.10;88.10;;;;;;7383619;19;20006;-79
2023/08/31 06:18:48;;;;;;;10.43;3.35;;;19.10;87.80;;;;;;7382898;19;20358;-79
2023/08/31 06:21:17;;;;;;;12.18;3.75;;;19.10;87.80;;;;;;7381115;19;20007;-78
2023/08/31 06:23:45;;;;;;;19.27;2.95;;;19.20;87.80;;;;;;7379202;19;20014;-79
2023/08/31 06:26:14;;;;;;;12.85;3.75;;;19.20;87.70;;;;;;7384179;19;20028;-78
2023/08/31 06:28:43;;;;;;;15.63;3.70;;;19.20;87.80;;;;;;7409626;19;20014;-80
2023/08/31 06:31:14;;;;;;;22.50;4.18;;;19.30;87.70;;;;;;7386447;19;20022;-79
2023/08/31 06:33:43;;;;;;;12.60;3.33;;;19.30;87.80;;;;;;7388746;19;20007;-80
2023/08/31 06:36:12;;;;;;;14.27;3.42;;;19.40;87.90;;;;;;7394240;19;20010;-80
2023/08/31 06:38:40;;;;;;;10.50;3.17;;;19.40;87.80;;;;;;7386997;19;20067;-79
2023/08/31 06:41:09;;;;;;;20.95;3.85;;;19.50;87.70;;;;;;7407329;19;20002;-79
2023/08/31 06:43:38;;;;;;;15.25;3.72;;;19.50;87.80;;;;;;7384560;19;20226;-79
2023/08/31 06:46:07;;;;;;;12.98;3.20;;;19.50;87.70;;;;;;7385797;19;20006;-79
2023/08/31 06:48:38;;;;;;;11.60;3.58;;;19.60;87.60;;;;;;7384671;19;20351;-80
2023/08/31 06:51:06;;;;;;;;;;;19.60;87.20;;;;;;7386628;19;20007;-80
2023/08/31 06:53:35;;;;;;;17.20;3.90;;;19.70;87.50;;;;;;7384766;19;19919;-79
2023/08/31 06:56:04;;;;;;;11.57;3.50;;;19.70;87.10;;;;;;7406365;19;20244;-79
2023/08/31 06:58:33;;;;;;;17.02;3.80;;;19.70;87.20;;;;;;7387092;19;20010;-80
2023/08/31 07:01:02;;;;;;;17.63;3.97;;;19.80;86.80;;;;;;7390922;19;20010;-78
2023/08/31 07:03:31;;;;;;;23.85;3.97;;;19.70;85.20;;;;;;7391082;19;20006;-79
2023/08/31 07:06:02;;;;;;;19.70;3.97;;;19.70;85.30;;;;;;7389809;19;20007;-79
2023/08/31 07:08:31;;;;;;;14.07;3.50;;;19.70;85.40;;;;;;7390598;19;20020;-79
2023/08/31 07:11:00;;;;;;;13.70;3.67;;;19.70;85.60;;;;;;7413194;19;20023;-79
2023/08/31 07:13:29;;;;;;;12.93;3.55;;;19.70;85.10;;;;;;7391938;19;20751;-79
2023/08/31 07:15:57;;;;;;;23.02;3.90;;;19.80;85.40;;;;;;7390687;19;20014;-80
2023/08/31 07:18:26;;;;;;;13.88;4.25;;;19.80;85.30;;;;;;7390257;19;20032;-80
2023/08/31 07:20:55;;;;;;;12.95;3.92;;;19.90;85.30;;;;;;7390159;19;20014;-79
2023/08/31 07:23:26;;;;;;;16.33;4.28;;;19.90;84.60;;;;;;7389217;19;20018;-79
2023/08/31 07:25:55;;;;;;;22.10;4.35;;;19.90;84.40;;;;;;7412384;19;20035;-79
2023/08/31 07:28:24;;;;;;;12.00;3.10;;;20.00;84.50;;;;;;7389048;19;20066;-79
2023/08/31 07:31:03;;;;;;;13.48;3.40;;;20.00;84.20;;;;;;7387401;19;20013;-79
2023/08/31 07:33:33;;;;;;;17.30;3.88;;;20.00;83.90;;;;;;7388683;19;20002;-80
2023/08/31 07:36:03;;;;;;;13.18;3.40;;;20.10;84.20;;;;;;7387963;19;20051;-79
2023/08/31 07:38:35;;;;;;;11.05;3.60;;;20.00;83.90;;;;;;7389607;19;20014;-79
2023/08/31 07:41:04;;;;;;;14.10;3.30;;;20.00;84.00;;;;;;7409907;19;20247;-79
2023/08/31 07:43:32;;;;;;;12.98;3.30;;;20.00;84.10;;;;;;7387726;19;19998;-79
2023/08/31 07:46:01;;;;;;;15.30;3.90;;;20.00;84.40;;;;;;7391151;19;20006;-80
2023/08/31 07:48:30;;;;;;;15.48;3.15;;;20.00;84.40;;;;;;7391561;19;20115;-80
2023/08/31 07:50:59;;;;;;;17.13;3.63;;;20.00;84.40;;;;;;7389136;19;20014;-80
2023/08/31 07:53:28;;;;;;;10.88;3.42;;;20.10;84.30;;;;;;7389354;19;20013;-79
2023/08/31 07:56:00;;;;;;;13.95;3.38;;;20.20;84.20;;;;;;7412045;19;20011;-79
2023/08/31 07:58:29;;;;;;;9.40;3.30;;;20.20;84.40;;;;;;7390162;19;20007;-79
2023/08/31 08:00:58;;;;;;;12.57;3.38;;;20.30;84.10;;;;;;7388888;19;20007;-79
2023/08/31 08:03:27;;;;;;;13.95;3.00;;;20.40;82.80;;;;;;7389063;19;20007;-80
2023/08/31 08:05:58;;;;;;;21.85;3.47;;;20.50;82.60;;;;;;7388748;19;20401;-80
2023/08/31 08:08:27;;;;;;;18.13;3.08;;;20.50;82.40;;;;;;7390300;19;20014;-79
2023/08/31 08:10:59;;;;;;;13.38;3.25;;;20.50;81.60;;;;;;7410110;19;20038;-79
2023/08/31 08:13:28;;;;;;;12.75;3.13;;;20.30;81.70;;;;;;7389884;19;20333;-79
2023/08/31 08:15:57;;;;;;;16.73;3.40;;;20.30;81.70;;;;;;7389258;19;20011;-78
2023/08/31 08:18:25;;;;;;;16.83;3.05;;;20.30;81.40;;;;;;7388111;19;20011;-79
2023/08/31 08:20:54;;;;;;;18.23;2.88;;;20.40;81.00;;;;;;7388936;19;20027;-79
2023/08/31 08:23:23;;;;;;;10.35;2.85;;;20.30;81.00;;;;;;7387930;19;20003;-79
2023/08/31 08:25:52;;;;;;;17.52;3.17;;;20.30;81.00;;;;;;7410484;19;20015;-78
2023/08/31 08:28:23;;;;;;;14.85;3.13;;;20.30;81.00;;;;;;7388780;19;20026;-79
2023/08/31 08:30:52;;;;;;;;;;;20.40;81.10;;;;;;7390519;19;20018;-78
2023/08/31 08:33:20;;;;;;;19.88;3.75;;;20.40;80.60;;;;;;7390157;19;19915;-78
2023/08/31 08:35:49;;;;;;;19.63;3.20;;;20.40;80.20;;;;;;7398118;19;20038;-79
2023/08/31 08:38:18;;;;;;;16.10;3.33;;;20.50;80.30;;;;;;7398759;19;20038;-79
2023/08/31 08:40:47;;;;;;;13.45;3.13;;;20.50;79.80;;;;;;7417441;19;20018;-80
2023/08/31 08:43:17;;;;;;;16.08;2.97;;;20.60;79.80;;;;;;7393346;19;20031;-79
2023/08/31 08:45:50;;;;;;;14.88;3.20;;;20.70;79.60;;;;;;7394460;19;20234;-79
2023/08/31 08:48:20;;;;;;;8.77;2.72;;;20.70;79.70;;;;;;7392035;19;20019;-79
2023/08/31 08:50:49;;;;;;;15.57;2.90;;;20.70;79.60;;;;;;7388246;19;20321;-79
2023/08/31 08:53:17;;;;;;;8.82;2.72;;;20.70;80.10;;;;;;7388488;19;20030;-79
2023/08/31 08:55:46;;;;;;;6.70;2.58;;;20.80;79.40;;;;;;7410113;19;20007;-79
2023/08/31 08:58:15;;;;;;;16.48;3.08;;;20.70;79.30;;;;;;7389976;19;20017;-79
2023/08/31 09:00:45;;;;;;;14.95;3.15;;;20.70;79.70;;;;;;7389341;19;20046;-78
2023/08/31 09:03:16;;;;;;;15.60;2.80;;;20.70;79.70;;;;;;7389406;19;20023;-79
2023/08/31 09:05:45;;;;;;;;;;;20.70;79.80;;;;;;7386774;19;20015;-80
2023/08/31 09:08:15;;;;;;;17.55;3.28;;;20.70;80.50;;;;;;7389655;19;19952;-79
2023/08/31 09:10:45;;;;;;;13.02;3.00;;;20.80;81.30;;;;;;7409505;19;20010;-79
2023/08/31 09:13:15;;;;;;;16.48;3.58;;;20.80;81.80;;;;;;7386270;19;20003;-79
2023/08/31 09:15:47;;;;;;;14.55;3.45;;;20.90;81.60;;;;;;7386385;19;20271;-78
2023/08/31 09:18:25;;;;;;;;;;;20.90;80.80;;;;;;7386679;19;20376;-79
2023/08/31 09:20:56;;;;;;;9.27;2.78;;;21.00;80.10;;;;;;7384258;19;19919;-79
2023/08/31 09:23:25;;;;;;;11.25;3.03;;;21.00;80.30;;;;;;7385618;19;20078;-79
2023/08/31 09:25:55;;;;;;;24.63;3.20;;;21.00;79.90;;;;;;7406639;19;19999;-79
2023/08/31 09:28:26;;;;;;;14.98;2.97;;;21.10;79.80;;;;;;7386773;19;20005;-79
2023/08/31 09:30:56;;;;;;;12.60;3.50;;;21.10;80.50;;;;;;7385352;19;20034;-79
2023/08/31 09:33:27;;;;;;;15.38;3.20;;;21.20;80.20;;;;;;7385271;19;20003;-79
2023/08/31 09:35:56;;;;;;;;;;;21.30;80.10;;;;;;7386079;19;20017;-79
2023/08/31 09:38:25;;;;;;;9.45;3.15;;;21.30;79.70;;;;;;7387337;19;19918;-79
2023/08/31 09:40:54;;;;;;;10.00;3.20;;;21.40;79.70;;;;;;7407408;19;20018;-79
2023/08/31 09:43:23;;;;;;;17.25;3.45;;;21.40;79.10;;;;;;7388702;19;19998;-79
2023/08/31 09:45:53;;;;;;;17.63;4.05;;;21.40;79.50;;;;;;7385711;19;20024;-79
2023/08/31 09:48:22;;;;;;;17.98;3.55;;;21.40;80.00;;;;;;7384560;19;20010;-79
2023/08/31 09:50:54;;;;;;;13.32;2.92;;;21.50;80.10;;;;;;7386310;19;20060;-79
2023/08/31 09:53:24;;;;;;;9.88;3.28;;;21.60;79.50;;;;;;7385786;19;20007;-80
2023/08/31 09:55:54;;;;;;;11.82;3.28;;;21.60;78.10;;;;;;7406871;19;20042;-79
2023/08/31 09:58:24;;;;;;;20.73;3.60;;;21.60;78.20;;;;;;7384688;19;20361;-79
2023/08/31 10:00:54;;;;;;;9.40;3.20;;;21.60;78.10;;;;;;7387937;19;20397;-79
2023/08/31 10:03:23;;;;;;;14.83;2.87;;;21.60;77.50;;;;;;7385370;19;20023;-80
2023/08/31 10:05:56;;;;;;;17.70;3.25;;;21.50;78.30;;;;;;7386312;19;20255;-79
2023/08/31 10:08:28;;;;;;;15.10;3.17;;;21.50;77.60;;;;;;7384825;19;20015;-80
2023/08/31 10:10:57;;;;;;;;;;;21.40;77.90;;;;;;7411046;19;20359;-80
2023/08/31 10:13:26;;;;;;;18.50;3.65;;;21.20;79.20;;;;;;7387120;19;19918;-79
2023/08/31 10:15:55;;;;;;;22.42;3.38;;;21.20;80.10;;;;;;7386665;19;20074;-80
2023/08/31 10:18:24;;;;;;;14.20;3.88;;;21.20;80.40;;;;;;7386022;19;20374;-78
2023/08/31 10:20:56;;;;;;;13.13;3.42;;;21.30;80.70;;;;;;7386231;19;20011;-79
2023/08/31 10:23:24;;;;;;;;;;;21.30;81.60;;;;;;7385917;19;20014;-79
2023/08/31 10:26:03;;;;;;;14.05;3.28;;;21.40;80.40;;;;;;7407314;19;19922;-79
2023/08/31 10:28:40;;;;;;;13.75;3.30;;;21.40;81.10;;;;;;7387013;19;20011;-80
2023/08/31 10:31:10;;;;;;;14.15;3.13;;;21.40;80.10;;;;;;7386658;19;20010;-79
2023/08/31 10:33:44;;;;;;;16.45;2.85;;;21.50;80.10;;;;;;7393008;19;20268;-79
2023/08/31 10:36:16;;;;;;;12.20;3.28;;;21.50;79.50;;;;;;7394486;19;20012;-79
2023/08/31 10:38:48;;;;;;;13.50;2.90;;;21.20;79.60;;;;;;7403617;19;20038;-80
2023/08/31 10:41:22;;;;;;;13.93;3.10;;;21.10;79.30;;;;;;7405592;19;20014;-79
2023/08/31 10:43:53;;;;;;;11.45;2.88;;;21.20;79.60;;;;;;7428480;19;20003;-79
2023/08/31 10:46:33;;;;;;;14.38;3.58;;;21.20;79.90;;;;;;7410001;19;20007;-79
2023/08/31 10:49:04;;;;;;;15.73;3.05;;;21.30;80.20;;;;;;7402400;19;20082;-79
2023/08/31 10:51:35;;;;;;;18.80;3.30;;;21.20;79.80;;;;;;7392229;19;20010;-78
2023/08/31 10:54:15;;;;;;;11.23;3.00;;;21.20;79.00;;;;;;7391622;19;20236;-78
2023/08/31 10:57:06;;;;;;;20.88;3.92;;;21.20;79.70;;;;;;7391617;19;20146;-79
2023/08/31 10:59:46;;;;;;;18.05;3.10;;;21.30;80.40;;;;;;7391255;19;20078;-79
2023/08/31 11:02:31;;;;;;;17.08;3.25;;;21.30;79.90;;;;;;7394859;19;20017;-79
2023/08/31 11:05:04;;;;;;;21.50;3.38;;;21.40;78.80;;;;;;7415798;19;20005;-79
2023/08/31 11:07:36;;;;;;;11.63;3.05;;;21.40;77.60;;;;;;7393420;19;20011;-78
2023/08/31 11:10:14;;;;;;;10.32;3.35;;;21.40;77.60;;;;;;7395944;19;20013;-80
2023/08/31 11:12:45;;;;;;;9.65;2.78;;;21.40;76.80;;;;;;7393608;19;20018;-79
2023/08/31 11:15:17;;;;;;;10.23;2.70;;;21.30;76.70;;;;;;7390016;19;20007;-79
2023/08/31 11:17:46;;;;;;;12.93;2.55;;;21.20;75.30;;;;;;7393574;19;20007;-79
2023/08/31 11:20:19;;;;;;;5.40;2.10;;;21.30;74.70;;;;;;7394393;19;20017;-78
2023/08/31 11:22:53;;;;;;;9.13;2.85;;;21.30;74.40;;;;;;7410910;19;20243;-79
2023/08/31 11:25:23;;;;;;;11.05;2.80;;;21.20;73.50;;;;;;7389705;19;20010;-78
2023/08/31 11:27:59;;;;;;;17.10;3.17;;;21.30;72.90;;;;;;7393809;19;20014;-78
2023/08/31 11:30:31;;;;;;;12.93;2.70;;;21.10;72.80;;;;;;7393987;19;20014;-80
2023/08/31 11:33:05;;;;;;;13.02;2.95;;;20.90;73.40;;;;;;7392245;19;20018;-79
2023/08/31 11:35:36;;;;;;;14.13;2.78;;;21.00;74.30;;;;;;7391375;19;21598;-78
2023/08/31 11:38:08;;;;;;;9.70;2.53;;;21.20;74.50;;;;;;7413051;19;20018;-78
2023/08/31 11:40:38;;;;;;;10.20;2.25;;;21.30;74.60;;;;;;7392855;19;20007;-78
2023/08/31 11:43:08;;;;;;;8.55;2.00;;;21.40;75.80;;;;;;7391414;19;20017;-79
2023/08/31 11:45:38;;;;;;;7.75;1.98;;;21.20;77.90;;;;;;7388672;19;20103;-79
2023/08/31 11:48:08;;;;;;;11.65;2.30;;;21.20;80.10;;;;;;7391035;19;19999;-79
2023/08/31 11:50:39;;;;;;;10.05;2.55;;;21.20;81.00;;;;;;7392459;19;20007;-79
2023/08/31 11:53:10;;;;;;;12.98;2.47;;;21.20;83.00;;;;;;7410317;19;20039;-79
2023/08/31 11:55:51;;;;;;;12.50;2.45;;;21.00;83.90;;;;;;7390851;19;20006;-79
2023/08/31 11:58:20;;;;;;;10.00;3.10;;;21.00;84.70;;;;;;7389786;19;20009;-79
2023/08/31 12:00:57;;;;;;;9.18;2.83;;;21.00;85.80;;;;;;7390610;19;20014;-79
2023/08/31 12:03:27;;;;;;;11.20;2.55;;;21.00;86.80;;;;;;7389356;19;20156;-79
2023/08/31 12:05:58;;;;;;;8.18;2.50;;;21.10;87.40;;;;;;7388127;19;20223;-79
2023/08/31 12:08:30;;;;;;;14.98;2.47;;;21.10;87.30;;;;;;7390898;19;20018;-78
2023/08/31 12:10:58;;;;;;;12.90;2.95;;;21.20;87.10;;;;;;7415576;19;20023;-80
2023/08/31 12:13:30;;;;;;;12.77;2.65;;;21.20;86.90;;;;;;7391475;19;19999;-80
2023/08/31 12:16:01;;;;;;;13.13;2.75;;;21.20;86.90;;;;;;7390116;19;20278;-79
2023/08/31 12:18:33;;;;;;;8.85;2.50;;;21.20;87.00;;;;;;7390818;19;20007;-79
2023/08/31 12:21:03;;;;;;;9.13;2.45;;;21.20;87.40;;;;;;7390733;19;20018;-79
2023/08/31 12:23:35;;;;;;;7.87;2.97;;;21.30;87.10;;;;;;7389494;19;20067;-78
2023/08/31 12:26:05;;;;;;;13.95;2.83;;;21.30;86.80;;;;;;7410699;19;20306;-78
2023/08/31 12:28:34;;;;;;;7.13;2.28;;;21.30;86.70;;;;;;7393960;19;20002;-79
2023/08/31 12:31:04;;;;;;;12.38;2.90;;;21.30;87.10;;;;;;7387042;19;20362;-79
2023/08/31 12:33:33;;;;;;;11.23;2.80;;;21.10;87.40;;;;;;7387471;19;20002;-80
2023/08/31 12:36:02;;;;;;;10.13;2.88;;;21.10;88.40;;;;;;7387297;19;20011;-80
2023/08/31 12:38:31;;;;;;;9.77;2.58;;;21.10;89.20;;;;;;7384799;19;20023;-79
2023/08/31 12:41:02;;;;;;;18.52;3.58;;;21.10;89.60;;;;;;7409355;19;20024;-80
2023/08/31 12:43:31;;;;;;;;;;;21.10;89.90;;;;;;7389742;19;20055;-79
2023/08/31 12:46:00;;;;;;;10.05;3.30;;;21.20;90.20;;;;;;7388285;19;19926;-78
2023/08/31 12:48:29;;;;;;;13.13;3.42;;;21.10;90.50;;;;;;7389250;19;20038;-79
2023/08/31 12:50:57;;;;;;;9.77;3.60;;;21.20;90.70;;;;;;7389163;19;19999;-79
2023/08/31 12:53:26;;;;;;;17.80;3.58;;;21.20;91.10;;;;;;7383546;19;20007;-79
2023/08/31 12:55:56;;;;;;;11.70;3.35;;;21.20;91.40;;;;;;7405947;19;20042;-81
2023/08/31 12:58:27;;;;;;;12.45;4.15;;;21.20;91.70;;;;;;7382469;19;20258;-78